createdAt,value
2019-05-11T00:01:26.333Z,82.30
2019-05-11T00:06:17.695Z,84.60
2019-05-11T00:11:09.070Z,84.30
2019-05-11T00:16:00.575Z,82.60
2019-05-11T00:20:51.856Z,83.10
2019-05-11T00:25:43.301Z,83.50
2019-05-11T00:30:34.600Z,82.60
2019-05-11T00:35:26.092Z,83.10
2019-05-11T00:40:17.397Z,82.80
2019-05-11T00:45:08.877Z,83.70
2019-05-11T00:50:00.241Z,84.90
2019-05-11T00:54:51.718Z,80.40
2019-05-11T00:59:43.063Z,80.90
2019-05-11T01:04:34.555Z,80.60
2019-05-11T01:09:25.850Z,81.70
2019-05-11T01:14:22.345Z,82.10
2019-05-11T01:19:10.392Z,84.10
2019-05-11T01:24:01.836Z,84.50
2019-05-11T01:28:53.237Z,88.00
2019-05-11T01:33:44.669Z,88.50
2019-05-11T01:38:36.112Z,87.50
2019-05-11T01:43:27.451Z,88.90
2019-05-11T01:48:18.826Z,88.40
2019-05-11T01:53:10.293Z,86.90
2019-05-11T01:58:01.631Z,88.50
2019-05-11T02:02:53.041Z,88.90
2019-05-11T02:07:44.372Z,88.20
2019-05-11T02:12:35.831Z,89.90
2019-05-11T02:17:27.166Z,90.60
2019-05-11T02:22:18.606Z,90.80
2019-05-11T02:27:10.001Z,89.00
2019-05-11T02:32:01.444Z,88.50
2019-05-11T02:36:52.800Z,86.60
2019-05-11T02:41:44.229Z,87.30
2019-05-11T02:46:35.630Z,88.20
2019-05-11T02:51:27.051Z,85.60
2019-05-11T02:56:18.341Z,86.30
2019-05-11T03:01:09.806Z,84.90
2019-05-11T03:06:01.191Z,83.20
2019-05-11T03:10:52.586Z,84.40
2019-05-11T03:15:43.932Z,83.30
2019-05-11T03:20:35.454Z,81.30
2019-05-11T03:25:26.754Z,81.60
2019-05-11T03:30:18.220Z,82.00
2019-05-11T03:35:09.513Z,82.00
2019-05-11T03:40:00.960Z,80.70
2019-05-11T03:44:52.288Z,80.80
2019-05-11T03:49:43.830Z,81.00
2019-05-11T03:54:35.099Z,80.50
2019-05-11T03:59:26.561Z,81.00
2019-05-11T04:04:17.906Z,81.60
2019-05-11T04:09:09.360Z,80.50
2019-05-11T04:14:03.049Z,79.70
2019-05-11T04:18:54.549Z,80.40
2019-05-11T04:23:46.062Z,80.20
2019-05-11T04:28:37.399Z,79.90
2019-05-11T04:33:33.755Z,80.20
2019-05-11T04:38:22.325Z,79.00
2019-05-11T04:43:13.759Z,79.00
2019-05-11T04:48:05.218Z,77.80
2019-05-11T04:52:56.582Z,78.00
2019-05-11T04:57:47.975Z,75.20
2019-05-11T05:02:39.351Z,75.80
2019-05-11T05:07:30.839Z,75.20
2019-05-11T05:12:22.142Z,73.40
2019-05-11T05:17:13.627Z,74.70
2019-05-11T05:22:04.973Z,73.40
2019-05-11T05:26:56.424Z,71.60
2019-05-11T05:31:47.743Z,69.10
2019-05-11T05:36:39.131Z,67.00
2019-05-11T05:41:30.515Z,67.10
2019-05-11T05:46:21.961Z,73.70
2019-05-11T05:51:13.328Z,74.90
2019-05-11T05:56:04.756Z,75.70
2019-05-11T06:00:56.099Z,72.70
2019-05-11T06:05:47.558Z,73.00
2019-05-11T06:10:38.982Z,74.00
2019-05-11T06:15:30.389Z,74.30
2019-05-11T06:20:21.726Z,74.80
2019-05-11T06:25:13.346Z,74.90
2019-05-11T06:30:04.528Z,74.90
2019-05-11T06:34:55.966Z,73.50
2019-05-11T06:39:47.376Z,63.50
2019-05-11T06:44:38.826Z,64.40
2019-05-11T06:49:30.095Z,63.40
2019-05-11T06:54:21.517Z,66.10
2019-05-11T06:59:12.860Z,65.80
2019-05-11T07:04:04.609Z,66.70
2019-05-11T07:08:55.904Z,64.60
2019-05-11T07:13:49.531Z,66.40
2019-05-11T07:18:41.005Z,66.20
2019-05-11T07:23:34.687Z,68.90
2019-05-11T07:28:26.134Z,70.50
2019-05-11T07:33:19.835Z,65.50
2019-05-11T07:38:11.267Z,63.80
2019-05-11T07:43:10.108Z,54.60
2019-05-11T07:47:54.043Z,51.70
2019-05-11T07:52:48.365Z,48.20
2019-05-11T07:57:43.729Z,49.40
2019-05-11T08:02:35.194Z,41.90
2019-05-11T08:07:28.961Z,41.00
2019-05-11T08:12:19.721Z,42.00
2019-05-11T08:17:11.552Z,40.80
2019-05-11T08:22:03.039Z,41.50
2019-05-11T08:26:55.407Z,36.70
2019-05-11T08:31:49.284Z,38.70
2019-05-11T08:36:38.938Z,33.50
2019-05-11T08:41:30.450Z,30.00
2019-05-11T08:46:21.743Z,28.40
2019-05-11T08:51:13.170Z,31.10
2019-05-11T08:56:04.487Z,32.30
2019-05-11T09:00:58.676Z,30.40
2019-05-11T09:05:49.062Z,33.80
2019-05-11T09:10:40.312Z,27.20
2019-05-11T09:15:40.954Z,27.30
2019-05-11T09:20:21.565Z,19.60
2019-05-11T09:25:12.978Z,20.30
2019-05-11T09:30:04.313Z,18.30
2019-05-11T09:34:58.402Z,16.20
2019-05-11T09:39:48.415Z,17.30
2019-05-11T09:44:38.582Z,16.00
2019-05-11T09:49:51.227Z,11.90
2019-05-11T09:54:21.200Z,12.40
2019-05-11T09:59:12.687Z,12.30
2019-05-11T10:04:04.011Z,11.90
2019-05-11T10:08:58.103Z,11.10
2019-05-11T10:13:49.041Z,12.30
2019-05-11T10:18:42.792Z,9.60
2019-05-11T10:23:34.200Z,11.20
2019-05-11T10:28:25.625Z,10.60
2019-05-11T10:33:19.296Z,9.30
2019-05-11T10:38:12.935Z,9.10
2019-05-11T10:43:04.381Z,10.90
2019-05-11T10:48:01.510Z,7.70
2019-05-11T10:52:49.370Z,9.20
2019-05-11T10:57:40.891Z,7.50
2019-05-11T11:02:32.226Z,7.20
2019-05-11T11:07:23.612Z,8.20
2019-05-11T11:12:14.990Z,7.40
2019-05-11T11:17:09.107Z,5.90
2019-05-11T11:22:43.996Z,7.60
2019-05-11T11:26:51.441Z,7.70
2019-05-11T11:31:42.861Z,9.20
2019-05-11T11:36:34.316Z,7.80
2019-05-11T11:41:25.755Z,6.60
2019-05-11T11:46:21.600Z,5.90
2019-05-11T11:51:13.130Z,6.80
2019-05-11T11:56:05.160Z,8.10
2019-05-11T12:00:59.095Z,7.10
2019-05-11T12:05:48.360Z,7.00
2019-05-11T12:10:39.442Z,7.60
2019-05-11T12:15:33.110Z,6.00
2019-05-11T12:20:29.052Z,4.80
2019-05-11T12:25:20.525Z,5.00
2019-05-11T12:35:05.842Z,4.80
2019-05-11T12:39:58.796Z,6.40
2019-05-11T12:44:50.932Z,5.20
2019-05-11T12:49:44.637Z,5.60
2019-05-11T12:54:38.370Z,4.90
2019-05-11T12:59:38.082Z,4.90
2019-05-11T13:04:28.790Z,4.60
2019-05-11T13:09:19.396Z,4.70
2019-05-11T13:14:10.868Z,7.20
2019-05-11T13:19:02.201Z,10.40
2019-05-11T13:23:53.661Z,15.20
2019-05-11T13:28:45.015Z,18.30
2019-05-11T13:33:38.901Z,21.40
2019-05-11T13:38:30.007Z,26.60
2019-05-11T13:43:21.468Z,26.40
2019-05-11T13:48:12.831Z,26.80
2019-05-11T13:53:04.279Z,26.80
2019-05-11T13:57:58.067Z,26.00
2019-05-11T14:02:49.104Z,26.00
2019-05-11T14:07:38.721Z,24.40
2019-05-11T14:12:29.911Z,21.20
2019-05-11T14:17:21.194Z,18.60
2019-05-11T14:22:12.708Z,20.00
2019-05-11T14:27:04.105Z,20.70
2019-05-11T14:31:58.216Z,25.50
2019-05-11T14:36:48.560Z,31.20
2019-05-11T14:41:38.835Z,32.30
2019-05-11T14:46:29.677Z,35.60
2019-05-11T14:51:21.216Z,36.10
2019-05-11T14:56:12.522Z,30.80
2019-05-11T15:01:03.972Z,31.00
2019-05-11T15:05:55.403Z,30.60
2019-05-11T15:10:49.256Z,30.10
2019-05-11T15:15:40.541Z,30.10
2019-05-11T15:20:31.970Z,34.30
2019-05-11T15:25:23.402Z,33.00
2019-05-11T15:30:14.830Z,32.60
2019-05-11T15:35:08.460Z,35.00
2019-05-11T15:40:02.143Z,34.10
2019-05-11T15:44:53.622Z,34.30
2019-05-11T15:49:44.974Z,35.30
2019-05-11T15:54:38.901Z,36.40
2019-05-11T15:59:30.998Z,37.80
2019-05-11T16:04:19.260Z,41.50
2019-05-11T16:09:10.731Z,43.90
2019-05-11T16:14:02.091Z,37.30
2019-05-11T16:19:15.257Z,43.90
2019-05-11T16:23:44.847Z,44.30
2019-05-11T16:28:38.836Z,43.60
2019-05-11T16:33:27.669Z,47.80
2019-05-11T16:38:19.536Z,48.30
2019-05-11T16:43:10.606Z,62.80
2019-05-11T16:48:02.156Z,71.00
2019-05-11T16:52:53.446Z,75.50
2019-05-11T16:57:44.921Z,75.70
2019-05-11T17:02:38.780Z,79.60
2019-05-11T17:07:30.368Z,79.10
2019-05-11T17:12:21.357Z,82.30
2019-05-11T17:17:12.925Z,82.10
2019-05-11T17:22:04.283Z,77.50
2019-05-11T17:26:58.218Z,77.50
2019-05-11T17:31:48.977Z,77.60
2019-05-11T17:36:38.626Z,77.90
2019-05-11T17:41:29.865Z,79.40
2019-05-11T17:46:21.289Z,80.20
2019-05-11T17:51:25.329Z,78.30
2019-05-11T17:56:04.124Z,79.20
2019-05-11T18:00:57.738Z,79.60
2019-05-11T18:05:49.054Z,80.60
2019-05-11T18:10:38.970Z,81.20
2019-05-11T18:15:29.652Z,82.10
2019-05-11T18:20:22.722Z,79.30
2019-05-11T18:25:14.514Z,79.90
2019-05-11T18:30:03.836Z,78.20
2019-05-11T18:34:55.218Z,77.00
2019-05-11T18:39:48.847Z,77.50
2019-05-11T18:44:38.503Z,78.20
2019-05-11T18:49:29.490Z,78.90
2019-05-11T18:54:20.837Z,77.30
2019-05-11T18:59:12.288Z,81.90
2019-05-11T19:04:03.673Z,82.70
2019-05-11T19:08:55.042Z,83.10
2019-05-11T19:13:48.313Z,83.40
2019-05-11T19:18:42.853Z,84.30
2019-05-11T19:23:31.441Z,84.30
2019-05-11T19:28:27.852Z,81.50
2019-05-11T19:31:28.442Z,80.00
2019-05-11T19:36:17.183Z,80.40
2019-05-11T19:41:10.761Z,82.30
2019-05-11T19:46:02.243Z,82.50
2019-05-11T19:51:12.130Z,82.80
2019-05-11T19:55:47.944Z,84.60
2019-05-11T20:00:38.900Z,86.50
2019-05-11T20:05:30.256Z,87.00
2019-05-11T20:10:21.668Z,87.20
2019-05-11T20:15:13.055Z,87.60
2019-05-11T20:20:04.517Z,88.10
2019-05-11T20:24:58.294Z,85.60
2019-05-11T20:29:48.276Z,87.50
2019-05-11T20:34:40.935Z,86.40
2019-05-11T20:39:32.464Z,86.30
2019-05-11T20:44:23.807Z,84.90
2019-05-11T20:49:15.269Z,86.00
2019-05-11T20:54:09.232Z,87.10
2019-05-11T20:59:00.189Z,85.60
2019-05-11T21:03:49.415Z,86.00
2019-05-11T21:08:40.906Z,87.90
2019-05-11T21:13:34.554Z,85.40
2019-05-11T21:18:26.021Z,86.10
2019-05-11T21:23:19.113Z,85.20
2019-05-11T21:28:09.185Z,86.60
2019-05-11T21:33:00.174Z,84.60
2019-05-11T21:37:51.675Z,84.40
2019-05-11T21:42:47.503Z,82.70
2019-05-11T21:47:39.910Z,82.70
2019-05-11T21:52:29.256Z,84.10
2019-05-11T21:57:19.482Z,84.00
2019-05-11T22:02:11.572Z,84.90
2019-05-11T22:07:02.217Z,85.50
2019-05-11T22:11:53.604Z,82.40
2019-05-11T22:16:47.973Z,83.30
2019-05-11T22:21:38.716Z,83.30
2019-05-11T22:26:30.192Z,84.10
2019-05-11T22:31:23.784Z,82.30
2019-05-11T22:36:17.501Z,82.90
2019-05-11T22:41:09.654Z,81.70
2019-05-11T22:46:00.396Z,84.00
2019-05-11T22:50:51.660Z,80.40
2019-05-11T22:55:43.106Z,79.10
2019-05-11T23:00:34.435Z,79.80
2019-05-11T23:05:30.287Z,78.90
2019-05-11T23:10:18.221Z,79.50
2019-05-11T23:15:08.684Z,76.80
2019-05-11T23:20:00.049Z,77.50
2019-05-11T23:24:51.490Z,77.30
2019-05-11T23:29:45.077Z,78.70
2019-05-11T23:34:39.157Z,76.30
2019-05-11T23:39:32.415Z,78.40
2019-05-11T23:44:23.873Z,78.10
2019-05-11T23:49:15.233Z,76.40
2019-05-11T23:54:18.718Z,76.10
2019-05-11T23:59:00.239Z,76.60
